createdAt,value
2023-05-07T00:00:52.249Z,8.11
2023-05-07T00:03:20.022Z,8.54
2023-05-07T00:05:47.327Z,8.42
2023-05-07T00:08:13.644Z,8.38
2023-05-07T00:10:40.097Z,8.39
2023-05-07T00:13:06.526Z,8.50
2023-05-07T00:15:32.875Z,8.48
2023-05-07T00:18:00.325Z,8.20
2023-05-07T00:20:26.896Z,8.30
2023-05-07T00:22:53.367Z,8.32
2023-05-07T00:25:20.657Z,8.30
2023-05-07T00:27:47.087Z,8.36
2023-05-07T00:30:13.840Z,8.20
2023-05-07T00:32:40.305Z,8.30
2023-05-07T00:35:07.484Z,8.32
2023-05-07T00:37:33.853Z,8.40
2023-05-07T00:40:00.338Z,8.41
2023-05-07T00:42:26.758Z,8.49
2023-05-07T00:44:53.044Z,8.42
2023-05-07T00:47:19.436Z,8.47
2023-05-07T00:49:46.508Z,8.35
2023-05-07T00:52:16.469Z,8.24
2023-05-07T00:54:43.788Z,8.24
2023-05-07T00:57:12.025Z,8.16
2023-05-07T00:59:39.120Z,8.22
2023-05-07T01:02:05.470Z,8.23
2023-05-07T01:04:31.872Z,8.25
2023-05-07T01:07:00.658Z,8.18
2023-05-07T01:09:27.819Z,8.13
2023-05-07T01:11:54.974Z,8.14
2023-05-07T01:14:21.601Z,8.05
2023-05-07T01:16:49.040Z,8.07
2023-05-07T01:19:19.101Z,8.12
2023-05-07T01:21:48.897Z,8.13
2023-05-07T01:24:16.052Z,8.14
2023-05-07T01:26:45.370Z,8.13
2023-05-07T01:29:11.898Z,8.04
2023-05-07T01:31:39.471Z,8.03
2023-05-07T01:34:09.357Z,8.08
2023-05-07T01:36:37.973Z,8.14
2023-05-07T01:39:06.441Z,8.23
2023-05-07T01:41:32.869Z,8.21
2023-05-07T01:44:00.141Z,8.13
2023-05-07T01:46:27.405Z,7.66
2023-05-07T01:48:54.812Z,8.23
2023-05-07T01:51:23.072Z,7.85
2023-05-07T01:53:51.671Z,7.73
2023-05-07T01:56:19.025Z,7.75
2023-05-07T01:58:48.737Z,7.79
2023-05-07T02:01:15.285Z,7.91
2023-05-07T02:03:41.762Z,7.83
2023-05-07T02:06:08.832Z,7.93
2023-05-07T02:08:35.336Z,7.98
2023-05-07T02:11:02.174Z,8.11
2023-05-07T02:13:34.321Z,8.11
2023-05-07T02:16:00.703Z,8.17
2023-05-07T02:18:27.521Z,8.35
2023-05-07T02:20:53.819Z,8.13
2023-05-07T02:23:20.241Z,8.25
2023-05-07T02:25:46.920Z,8.22
2023-05-07T02:28:13.590Z,8.20
2023-05-07T02:30:40.157Z,8.33
2023-05-07T02:33:07.269Z,7.63
2023-05-07T02:35:33.587Z,7.70
2023-05-07T02:37:59.862Z,7.87
2023-05-07T02:40:26.174Z,7.84
2023-05-07T02:42:52.464Z,7.89
2023-05-07T02:45:18.796Z,7.95
2023-05-07T02:47:45.413Z,7.90
2023-05-07T02:50:12.024Z,7.88
2023-05-07T02:52:38.450Z,8.02
2023-05-07T02:55:05.246Z,7.60
2023-05-07T02:57:31.637Z,7.52
2023-05-07T02:59:59.435Z,7.50
2023-05-07T03:02:25.770Z,7.46
2023-05-07T03:04:52.640Z,7.42
2023-05-07T03:07:18.967Z,7.41
2023-05-07T03:09:45.236Z,7.49
2023-05-07T03:12:11.506Z,7.47
2023-05-07T03:14:37.815Z,7.42
2023-05-07T03:17:04.186Z,7.49
2023-05-07T03:19:31.522Z,7.46
2023-05-07T03:21:57.861Z,7.49
2023-05-07T03:24:24.154Z,7.44
2023-05-07T03:26:50.623Z,7.60
2023-05-07T03:29:16.941Z,7.61
2023-05-07T03:31:43.671Z,7.58
2023-05-07T03:34:10.153Z,7.55
2023-05-07T03:36:36.522Z,7.56
2023-05-07T03:39:02.861Z,7.59
2023-05-07T03:41:30.760Z,7.58
2023-05-07T03:43:57.206Z,7.56
2023-05-07T03:46:23.514Z,7.60
2023-05-07T03:48:49.932Z,7.61
2023-05-07T03:51:16.268Z,7.63
2023-05-07T03:53:42.561Z,7.61
2023-05-07T03:56:08.840Z,7.64
2023-05-07T03:58:35.484Z,7.66
2023-05-07T04:01:01.986Z,7.69
2023-05-07T04:03:28.454Z,7.65
2023-05-07T04:05:54.870Z,7.66
2023-05-07T04:08:21.142Z,7.65
2023-05-07T04:10:47.491Z,7.60
2023-05-07T04:13:13.926Z,7.59
2023-05-07T04:15:40.251Z,7.61
2023-05-07T04:18:06.573Z,7.62
2023-05-07T04:20:35.553Z,7.57
2023-05-07T04:23:01.873Z,7.52
2023-05-07T04:25:28.438Z,7.57
2023-05-07T04:27:56.673Z,7.58
2023-05-07T04:30:24.314Z,7.58
2023-05-07T04:32:50.709Z,7.60
2023-05-07T04:35:17.598Z,7.70
2023-05-07T04:37:44.026Z,7.67
2023-05-07T04:40:11.219Z,7.64
2023-05-07T04:42:37.821Z,7.66
2023-05-07T04:45:06.017Z,7.60
2023-05-07T04:47:32.365Z,7.60
2023-05-07T04:49:59.170Z,7.72
2023-05-07T04:52:27.224Z,7.64
2023-05-07T04:54:53.837Z,7.65
2023-05-07T04:57:20.250Z,7.68
2023-05-07T04:59:46.686Z,7.67
2023-05-07T05:02:12.964Z,7.64
2023-05-07T05:04:39.330Z,7.65
2023-05-07T05:07:05.694Z,7.66
2023-05-07T05:09:31.968Z,7.66
2023-05-07T05:11:58.382Z,7.69
2023-05-07T05:14:24.686Z,7.74
2023-05-07T05:16:50.987Z,7.81
2023-05-07T05:19:17.305Z,7.82
2023-05-07T05:21:43.641Z,7.82
2023-05-07T05:24:09.974Z,7.81
2023-05-07T05:26:36.327Z,7.72
2023-05-07T05:29:02.640Z,7.72
2023-05-07T05:31:29.113Z,7.65
2023-05-07T05:33:55.491Z,7.63
2023-05-07T05:36:21.874Z,7.67
2023-05-07T05:38:48.198Z,7.69
2023-05-07T05:41:14.641Z,7.73
2023-05-07T05:43:40.896Z,7.74
2023-05-07T05:46:07.309Z,7.79
2023-05-07T05:48:33.657Z,7.80
2023-05-07T05:50:59.955Z,7.83
2023-05-07T05:53:26.237Z,7.80
2023-05-07T05:55:52.555Z,7.89
2023-05-07T05:58:18.983Z,7.95
2023-05-07T06:00:49.127Z,7.95
2023-05-07T06:03:15.540Z,8.01
2023-05-07T06:05:41.913Z,8.02
2023-05-07T06:08:08.714Z,8.06
2023-05-07T06:10:37.288Z,8.11
2023-05-07T06:13:03.644Z,8.10
2023-05-07T06:15:29.976Z,8.10
2023-05-07T06:17:58.325Z,8.25
2023-05-07T06:20:24.686Z,8.20
2023-05-07T06:22:51.033Z,8.25
2023-05-07T06:25:17.388Z,8.27
2023-05-07T06:27:43.673Z,8.35
2023-05-07T06:30:10.559Z,8.39
2023-05-07T06:32:37.601Z,8.45
2023-05-07T06:35:04.183Z,8.57
2023-05-07T06:37:30.443Z,8.60
2023-05-07T06:39:59.324Z,8.59
2023-05-07T06:42:26.358Z,8.54
2023-05-07T06:44:52.617Z,8.60
2023-05-07T06:47:19.016Z,8.67
2023-05-07T06:49:45.551Z,8.68
2023-05-07T06:52:11.861Z,8.71
2023-05-07T06:54:38.238Z,8.66
2023-05-07T06:57:04.521Z,8.64
2023-05-07T06:59:30.810Z,8.67
2023-05-07T07:01:57.156Z,8.61
2023-05-07T07:04:24.809Z,8.66
2023-05-07T07:06:53.272Z,8.78
2023-05-07T07:09:23.386Z,8.89
2023-05-07T07:11:50.443Z,8.87
2023-05-07T07:14:16.858Z,8.86
2023-05-07T07:16:43.164Z,8.72
2023-05-07T07:19:09.495Z,8.71
2023-05-07T07:21:35.756Z,8.80
2023-05-07T07:24:02.062Z,8.75
2023-05-07T07:26:28.701Z,8.80
2023-05-07T07:28:55.179Z,8.71
2023-05-07T07:31:21.589Z,8.87
2023-05-07T07:33:47.950Z,8.86
2023-05-07T07:36:14.213Z,8.77
2023-05-07T07:38:40.533Z,8.87
2023-05-07T07:41:09.422Z,8.94
2023-05-07T07:43:36.414Z,8.99
2023-05-07T07:46:03.224Z,9.00
2023-05-07T07:48:29.677Z,9.09
2023-05-07T07:50:56.002Z,9.07
2023-05-07T07:53:22.333Z,9.05
2023-05-07T07:55:48.650Z,9.24
2023-05-07T07:58:14.920Z,9.34
2023-05-07T08:00:41.310Z,9.39
2023-05-07T08:03:10.908Z,9.45
2023-05-07T08:05:37.522Z,9.26
2023-05-07T08:08:04.056Z,9.25
2023-05-07T08:10:30.520Z,9.17
2023-05-07T08:12:56.937Z,9.06
2023-05-07T08:15:23.276Z,9.01
2023-05-07T08:17:49.672Z,9.04
2023-05-07T08:20:15.995Z,9.13
2023-05-07T08:22:42.361Z,9.04
2023-05-07T08:25:09.161Z,8.99
2023-05-07T08:27:35.444Z,9.05
2023-05-07T08:30:02.223Z,8.95
2023-05-07T08:32:28.713Z,9.05
2023-05-07T08:34:55.015Z,9.15
2023-05-07T08:37:21.569Z,9.29
2023-05-07T08:39:47.885Z,9.28
2023-05-07T08:42:17.418Z,9.47
2023-05-07T08:44:47.944Z,9.64
2023-05-07T08:47:14.350Z,9.75
2023-05-07T08:49:40.887Z,9.82
2023-05-07T08:52:09.314Z,9.64
2023-05-07T08:54:38.094Z,9.59
2023-05-07T08:57:04.482Z,9.54
2023-05-07T08:59:30.934Z,9.54
2023-05-07T09:01:57.264Z,9.57
2023-05-07T09:04:23.753Z,9.50
2023-05-07T09:06:52.109Z,9.63
2023-05-07T09:09:19.828Z,9.58
2023-05-07T09:11:46.215Z,9.71
2023-05-07T09:14:12.552Z,9.85
2023-05-07T09:16:39.768Z,9.75
2023-05-07T09:19:06.226Z,9.68
2023-05-07T09:21:32.612Z,9.77
2023-05-07T09:23:58.928Z,9.99
2023-05-07T09:26:25.967Z,10.10
2023-05-07T09:28:52.630Z,10.13
2023-05-07T09:31:21.111Z,10.15
2023-05-07T09:33:48.055Z,10.11
2023-05-07T09:36:14.828Z,9.95
2023-05-07T09:38:41.300Z,10.05
2023-05-07T09:41:12.778Z,10.12
2023-05-07T09:43:41.182Z,9.99
2023-05-07T09:46:12.264Z,10.16
2023-05-07T09:48:43.269Z,10.13
2023-05-07T09:51:22.573Z,10.23
2023-05-07T09:53:49.453Z,10.13
2023-05-07T09:56:17.013Z,10.13
2023-05-07T09:58:44.454Z,10.23
2023-05-07T10:01:13.267Z,10.16
2023-05-07T10:03:44.502Z,10.34
2023-05-07T10:06:11.570Z,10.52
2023-05-07T10:08:38.473Z,10.68
2023-05-07T10:11:06.846Z,10.60
2023-05-07T10:13:37.422Z,10.70
2023-05-07T10:16:06.885Z,10.98
2023-05-07T10:18:34.149Z,11.18
2023-05-07T10:21:21.988Z,11.31
2023-05-07T10:23:58.601Z,11.22
2023-05-07T10:26:28.061Z,11.33
2023-05-07T10:29:00.671Z,11.41
2023-05-07T10:31:51.516Z,11.29
2023-05-07T10:34:24.045Z,11.39
2023-05-07T10:36:52.747Z,11.32
2023-05-07T10:39:21.487Z,11.66
2023-05-07T10:41:48.148Z,11.73
2023-05-07T10:44:27.460Z,11.90
2023-05-07T10:47:12.185Z,11.91
2023-05-07T10:49:44.358Z,12.05
2023-05-07T10:52:26.889Z,12.00
2023-05-07T10:55:18.722Z,12.31
2023-05-07T10:57:45.286Z,12.41
2023-05-07T11:00:22.427Z,12.56
2023-05-07T11:03:01.324Z,12.66
2023-05-07T11:05:32.978Z,12.48
2023-05-07T11:08:04.660Z,12.21
2023-05-07T11:10:57.216Z,12.08
2023-05-07T11:13:56.162Z,11.92
2023-05-07T11:16:24.390Z,12.09
2023-05-07T11:18:53.762Z,12.23
2023-05-07T11:21:40.018Z,12.79
2023-05-07T11:24:11.674Z,13.12
2023-05-07T11:26:44.373Z,13.44
2023-05-07T11:29:21.749Z,13.44
2023-05-07T11:31:56.076Z,13.38
2023-05-07T11:34:27.665Z,13.41
2023-05-07T11:36:54.394Z,13.49
2023-05-07T11:39:42.360Z,13.61
2023-05-07T11:42:26.422Z,13.78
2023-05-07T11:44:52.713Z,13.90
2023-05-07T11:47:19.974Z,13.94
2023-05-07T11:49:50.673Z,13.52
2023-05-07T11:52:18.170Z,13.89
2023-05-07T11:54:51.129Z,14.06
2023-05-07T11:57:17.852Z,13.50
2023-05-07T11:59:45.361Z,13.49
2023-05-07T12:02:11.722Z,13.35
2023-05-07T12:04:39.230Z,13.64
2023-05-07T12:07:05.588Z,13.68
2023-05-07T12:09:34.785Z,14.01
2023-05-07T12:12:05.294Z,14.20
2023-05-07T12:14:32.455Z,14.40
2023-05-07T12:17:00.000Z,14.49
2023-05-07T12:19:26.439Z,14.17
2023-05-07T12:21:53.094Z,14.32
2023-05-07T12:24:21.972Z,14.29
2023-05-07T12:26:49.646Z,14.46
2023-05-07T12:29:16.179Z,14.56
2023-05-07T12:31:43.251Z,14.43
2023-05-07T12:34:12.112Z,14.79
2023-05-07T12:36:39.975Z,14.64
2023-05-07T12:39:07.630Z,14.64
2023-05-07T12:41:52.637Z,14.62
2023-05-07T12:44:19.034Z,14.83
2023-05-07T12:46:45.581Z,14.94
2023-05-07T12:49:13.054Z,15.24
2023-05-07T12:51:39.420Z,15.23
2023-05-07T12:54:05.849Z,14.92
2023-05-07T12:56:32.598Z,14.89
2023-05-07T12:58:59.177Z,14.72
2023-05-07T13:01:30.696Z,14.99
2023-05-07T13:04:01.097Z,15.17
2023-05-07T13:06:27.572Z,15.17
2023-05-07T13:08:53.923Z,14.87
2023-05-07T13:11:20.240Z,14.85
2023-05-07T13:13:46.518Z,14.80
2023-05-07T13:16:13.266Z,14.80
2023-05-07T13:18:41.415Z,14.81
2023-05-07T13:21:08.024Z,14.99
2023-05-07T13:23:34.935Z,15.16
2023-05-07T13:26:04.224Z,15.34
2023-05-07T13:28:35.149Z,15.36
2023-05-07T13:31:01.461Z,15.61
2023-05-07T13:33:27.745Z,15.19
2023-05-07T13:35:54.173Z,15.30
2023-05-07T13:38:20.909Z,15.24
2023-05-07T13:40:47.908Z,15.37
2023-05-07T13:43:14.331Z,15.51
2023-05-07T13:45:40.952Z,15.28
2023-05-07T13:48:07.426Z,15.46
2023-05-07T13:50:33.823Z,15.34
2023-05-07T13:53:00.173Z,15.53
2023-05-07T13:55:26.719Z,15.67
2023-05-07T13:58:01.759Z,15.69
2023-05-07T14:00:28.974Z,15.56
2023-05-07T14:02:56.475Z,15.72
2023-05-07T14:05:26.602Z,15.61
2023-05-07T14:07:53.548Z,15.23
2023-05-07T14:10:20.471Z,15.41
2023-05-07T14:12:47.582Z,15.65
2023-05-07T14:15:14.716Z,15.50
2023-05-07T14:17:41.059Z,15.53
2023-05-07T14:20:08.241Z,15.58
2023-05-07T14:22:34.561Z,15.70
2023-05-07T14:25:14.655Z,15.90
2023-05-07T14:27:41.199Z,15.97
2023-05-07T14:30:07.918Z,15.60
2023-05-07T14:32:34.987Z,15.61
2023-05-07T14:35:01.372Z,15.67
2023-05-07T14:37:27.920Z,15.42
2023-05-07T14:39:54.293Z,15.71
2023-05-07T14:42:21.058Z,15.85
2023-05-07T14:44:49.138Z,16.03
2023-05-07T14:47:17.571Z,15.72
2023-05-07T14:49:46.040Z,15.77
2023-05-07T14:52:12.809Z,16.03
2023-05-07T14:54:39.620Z,16.09
2023-05-07T14:57:07.723Z,15.83
2023-05-07T14:59:34.494Z,16.02
2023-05-07T15:02:01.636Z,16.34
2023-05-07T15:04:29.489Z,16.31
2023-05-07T15:06:56.956Z,16.33
2023-05-07T15:09:23.386Z,16.28
2023-05-07T15:11:49.694Z,16.02
2023-05-07T15:14:16.244Z,15.96
2023-05-07T15:16:42.638Z,16.14
2023-05-07T15:19:09.281Z,16.19
2023-05-07T15:21:37.034Z,16.36
2023-05-07T15:24:03.674Z,16.35
2023-05-07T15:26:31.410Z,16.57
2023-05-07T15:28:58.190Z,16.69
2023-05-07T15:31:26.048Z,16.57
2023-05-07T15:33:55.506Z,16.20
2023-05-07T15:36:21.870Z,16.03
2023-05-07T15:38:48.197Z,16.10
2023-05-07T15:41:15.008Z,15.75
2023-05-07T15:43:46.902Z,15.91
2023-05-07T15:46:13.373Z,15.96
2023-05-07T15:48:39.754Z,15.90
2023-05-07T15:51:08.049Z,16.04
2023-05-07T15:53:34.724Z,15.93
2023-05-07T15:56:01.258Z,15.65
2023-05-07T15:58:27.556Z,15.63
2023-05-07T16:00:54.058Z,15.70
2023-05-07T16:03:22.185Z,15.61
2023-05-07T16:05:48.669Z,15.62
2023-05-07T16:08:15.188Z,15.56
2023-05-07T16:10:41.484Z,15.54
2023-05-07T16:13:07.831Z,15.65
2023-05-07T16:15:34.227Z,15.60
2023-05-07T16:18:00.832Z,15.53
2023-05-07T16:20:31.499Z,15.52
2023-05-07T16:22:58.656Z,15.49
2023-05-07T16:25:24.983Z,15.30
2023-05-07T16:27:53.483Z,15.42
2023-05-07T16:30:19.826Z,15.34
2023-05-07T16:32:46.118Z,15.25
2023-05-07T16:35:12.714Z,15.16
2023-05-07T16:37:42.370Z,14.99
2023-05-07T16:40:09.343Z,14.96
2023-05-07T16:42:36.373Z,14.82
2023-05-07T16:45:04.461Z,14.70
2023-05-07T16:47:31.467Z,14.67
2023-05-07T16:49:59.966Z,14.55
2023-05-07T16:52:27.542Z,14.43
2023-05-07T16:54:58.127Z,14.47
2023-05-07T16:57:25.510Z,14.47
2023-05-07T16:59:52.554Z,14.51
2023-05-07T17:02:19.602Z,14.41
2023-05-07T17:04:45.900Z,14.49
2023-05-07T17:07:12.401Z,14.38
2023-05-07T17:09:38.684Z,14.46
2023-05-07T17:12:05.445Z,14.51
2023-05-07T17:14:31.761Z,14.75
2023-05-07T17:16:58.062Z,14.78
2023-05-07T17:19:24.341Z,14.70
2023-05-07T17:21:50.655Z,14.59
2023-05-07T17:24:17.428Z,14.45
2023-05-07T17:26:43.739Z,14.42
2023-05-07T17:29:10.139Z,14.42
2023-05-07T17:31:36.549Z,14.30
2023-05-07T17:34:03.182Z,14.31
2023-05-07T17:36:29.472Z,14.20
2023-05-07T17:38:55.818Z,14.18
2023-05-07T17:41:22.598Z,14.07
2023-05-07T17:43:48.914Z,13.98
2023-05-07T17:46:15.317Z,14.05
2023-05-07T17:48:41.837Z,13.95
2023-05-07T17:51:09.588Z,13.85
2023-05-07T17:53:36.057Z,13.73
2023-05-07T17:56:02.428Z,13.77
2023-05-07T17:58:28.841Z,13.62
2023-05-07T18:00:55.497Z,13.69
2023-05-07T18:03:24.469Z,13.66
2023-05-07T18:05:51.079Z,13.77
2023-05-07T18:08:17.442Z,13.66
2023-05-07T18:10:43.860Z,13.62
2023-05-07T18:13:10.403Z,13.54
2023-05-07T18:15:36.835Z,13.53
2023-05-07T18:18:03.432Z,13.45
2023-05-07T18:20:29.915Z,13.49
2023-05-07T18:22:56.492Z,13.42
2023-05-07T18:25:23.165Z,13.38
2023-05-07T18:27:49.494Z,13.44
2023-05-07T18:30:15.783Z,13.36
2023-05-07T18:32:42.174Z,13.38
2023-05-07T18:35:08.717Z,13.25
2023-05-07T18:37:35.346Z,13.18
2023-05-07T18:40:03.870Z,13.13
2023-05-07T18:42:31.632Z,13.05
2023-05-07T18:44:59.214Z,12.99
2023-05-07T18:47:25.798Z,12.93
2023-05-07T18:49:52.228Z,12.89
2023-05-07T18:52:21.698Z,12.88
2023-05-07T18:54:48.294Z,12.91
2023-05-07T18:57:14.856Z,12.87
2023-05-07T18:59:41.241Z,12.85
2023-05-07T19:02:07.523Z,12.76
2023-05-07T19:04:34.118Z,12.79
2023-05-07T19:07:00.497Z,12.69
2023-05-07T19:09:26.954Z,12.64
2023-05-07T19:11:53.335Z,12.57
2023-05-07T19:14:19.606Z,12.51
2023-05-07T19:16:45.902Z,12.46
2023-05-07T19:19:12.157Z,12.41
2023-05-07T19:21:38.522Z,12.44
2023-05-07T19:24:05.139Z,12.34
2023-05-07T19:26:31.435Z,12.21
2023-05-07T19:31:27.211Z,12.10
2023-05-07T19:33:54.418Z,12.06
2023-05-07T19:36:20.738Z,11.93
2023-05-07T19:38:49.708Z,11.82
2023-05-07T19:41:16.026Z,11.79
2023-05-07T19:43:42.328Z,11.70
2023-05-07T19:46:08.783Z,11.68
2023-05-07T19:48:35.102Z,11.59
2023-05-07T19:51:01.507Z,11.50
2023-05-07T19:53:29.929Z,11.25
2023-05-07T19:56:05.910Z,11.11
2023-05-07T19:58:32.431Z,11.07
2023-05-07T20:00:58.790Z,11.10
2023-05-07T20:03:25.146Z,11.00
2023-05-07T20:05:51.661Z,10.93
2023-05-07T20:08:17.974Z,10.90
2023-05-07T20:10:44.299Z,10.70
2023-05-07T20:13:11.214Z,10.70
2023-05-07T20:15:38.468Z,10.69
2023-05-07T20:18:04.984Z,10.72
2023-05-07T20:20:31.500Z,10.70
2023-05-07T20:22:57.779Z,10.72
2023-05-07T20:25:24.253Z,10.62
2023-05-07T20:27:50.593Z,10.37
2023-05-07T20:30:18.789Z,10.22
2023-05-07T20:32:45.292Z,10.20
2023-05-07T20:35:11.755Z,10.02
2023-05-07T20:37:39.557Z,9.80
2023-05-07T20:40:07.568Z,9.76
2023-05-07T20:42:34.009Z,9.66
2023-05-07T20:45:02.781Z,9.59
2023-05-07T20:47:32.411Z,9.50
2023-05-07T20:49:58.720Z,9.39
2023-05-07T20:52:25.287Z,9.34
2023-05-07T20:54:51.789Z,9.21
2023-05-07T20:57:19.603Z,9.16
2023-05-07T20:59:46.197Z,9.16
2023-05-07T21:02:12.553Z,9.28
2023-05-07T21:04:38.907Z,9.42
2023-05-07T21:07:05.312Z,9.52
2023-05-07T21:09:31.600Z,9.61
2023-05-07T21:11:58.431Z,9.68
2023-05-07T21:14:24.865Z,9.79
2023-05-07T21:16:51.276Z,9.93
2023-05-07T21:19:17.594Z,9.94
2023-05-07T21:21:43.847Z,9.98
2023-05-07T21:24:11.059Z,9.99
2023-05-07T21:26:37.422Z,10.03
2023-05-07T21:29:03.759Z,10.00
2023-05-07T21:31:30.073Z,10.04
2023-05-07T21:33:57.260Z,10.04
2023-05-07T21:36:23.585Z,10.08
2023-05-07T21:38:50.087Z,10.09
2023-05-07T21:41:16.846Z,10.09
2023-05-07T21:43:43.141Z,9.98
2023-05-07T21:46:10.818Z,10.09
2023-05-07T21:48:38.499Z,10.14
2023-05-07T21:51:08.192Z,10.10
2023-05-07T21:53:35.529Z,10.17
2023-05-07T21:56:04.978Z,10.22
2023-05-07T21:58:31.679Z,10.26
2023-05-07T22:00:58.514Z,10.26
2023-05-07T22:03:25.094Z,10.23
2023-05-07T22:05:51.524Z,10.18
2023-05-07T22:08:17.822Z,10.25
2023-05-07T22:10:44.629Z,10.23
2023-05-07T22:13:11.006Z,10.16
2023-05-07T22:15:45.524Z,10.21
2023-05-07T22:18:19.959Z,10.18
2023-05-07T22:20:46.245Z,10.21
2023-05-07T22:23:12.588Z,10.18
2023-05-07T22:25:38.927Z,10.15
2023-05-07T22:28:05.766Z,10.14
2023-05-07T22:30:32.094Z,10.21
2023-05-07T22:32:58.444Z,10.17
2023-05-07T22:35:24.843Z,10.12
2023-05-07T22:37:51.113Z,10.08
2023-05-07T22:40:17.630Z,9.97
2023-05-07T22:42:44.108Z,9.94
2023-05-07T22:45:10.943Z,9.93
2023-05-07T22:47:37.409Z,9.88
2023-05-07T22:50:06.032Z,9.85
2023-05-07T22:52:33.841Z,9.92
2023-05-07T22:55:00.228Z,9.84
2023-05-07T22:57:26.586Z,9.68
2023-05-07T22:59:56.758Z,9.62
2023-05-07T23:02:23.352Z,9.69
2023-05-07T23:04:49.839Z,9.68
2023-05-07T23:07:16.206Z,9.70
2023-05-07T23:09:42.442Z,9.68
2023-05-07T23:12:09.502Z,9.55
2023-05-07T23:14:35.797Z,9.58
2023-05-07T23:17:02.579Z,9.56
2023-05-07T23:19:28.933Z,9.58
2023-05-07T23:21:55.275Z,9.53
2023-05-07T23:24:21.560Z,9.46
2023-05-07T23:26:47.845Z,9.31
2023-05-07T23:29:14.105Z,9.36
2023-05-07T23:31:40.711Z,9.36
2023-05-07T23:34:07.062Z,9.26
2023-05-07T23:36:33.408Z,9.26
2023-05-07T23:38:59.713Z,9.29
2023-05-07T23:41:26.062Z,9.19
2023-05-07T23:43:52.483Z,9.12
2023-05-07T23:46:19.031Z,9.07
2023-05-07T23:48:45.383Z,9.03
2023-05-07T23:51:11.652Z,9.08
2023-05-07T23:53:37.954Z,9.03
2023-05-07T23:56:04.588Z,8.98
2023-05-07T23:58:30.887Z,9.02
